createdAt,value
2019-03-29T00:00:01.126Z,96.98
2019-03-29T00:01:01.128Z,97.39
2019-03-29T00:02:01.075Z,96.98
2019-03-29T00:03:01.096Z,97.29
2019-03-29T00:04:01.206Z,97.39
2019-03-29T00:05:01.047Z,97.29
2019-03-29T00:06:01.112Z,97.49
2019-03-29T00:07:01.017Z,97.29
2019-03-29T00:08:01.138Z,97.14
2019-03-29T00:09:01.979Z,97.39
2019-03-29T00:10:00.993Z,97.49
2019-03-29T00:11:00.975Z,97.29
2019-03-29T00:12:00.967Z,97.60
2019-03-29T00:13:00.957Z,97.24
2019-03-29T00:14:00.972Z,97.55
2019-03-29T00:15:00.936Z,97.75
2019-03-29T00:16:00.922Z,97.60
2019-03-29T00:17:00.907Z,97.60
2019-03-29T00:18:00.899Z,97.65
2019-03-29T00:19:01.338Z,97.29
2019-03-29T00:20:00.902Z,97.49
2019-03-29T00:21:00.873Z,97.08
2019-03-29T00:22:00.853Z,97.19
2019-03-29T00:23:00.896Z,97.04
2019-03-29T00:24:06.513Z,97.49
2019-03-29T00:25:01.830Z,97.60
2019-03-29T00:26:00.823Z,97.45
2019-03-29T00:27:00.794Z,97.34
2019-03-29T00:28:00.802Z,97.14
2019-03-29T00:29:00.794Z,96.88
2019-03-29T00:30:00.805Z,97.24
2019-03-29T00:31:00.760Z,97.45
2019-03-29T00:32:00.738Z,97.24
2019-03-29T00:33:00.775Z,97.34
2019-03-29T00:34:00.747Z,97.65
2019-03-29T00:35:00.706Z,97.24
2019-03-29T00:36:00.693Z,97.34
2019-03-29T00:37:00.690Z,97.14
2019-03-29T00:38:00.669Z,97.14
2019-03-29T00:39:00.700Z,97.14
2019-03-29T00:40:00.648Z,97.45
2019-03-29T00:41:00.640Z,97.04
2019-03-29T00:42:00.629Z,96.94
2019-03-29T00:43:00.624Z,96.63
2019-03-29T00:44:01.083Z,97.49
2019-03-29T00:45:00.592Z,97.08
2019-03-29T00:46:00.583Z,97.49
2019-03-29T00:47:00.577Z,97.55
2019-03-29T00:48:00.576Z,97.39
2019-03-29T00:49:00.580Z,98.47
2019-03-29T00:50:00.547Z,98.16
2019-03-29T00:51:00.526Z,98.47
2019-03-29T00:52:00.521Z,97.60
2019-03-29T00:53:00.499Z,97.39
2019-03-29T00:54:01.907Z,97.55
2019-03-29T00:55:00.530Z,97.34
2019-03-29T00:56:00.473Z,97.55
2019-03-29T00:57:00.464Z,97.14
2019-03-29T00:58:00.445Z,97.29
2019-03-29T00:59:00.453Z,97.14
2019-03-29T01:00:00.423Z,97.39
2019-03-29T01:01:00.410Z,97.08
2019-03-29T01:02:00.397Z,97.39
2019-03-29T01:03:00.404Z,97.34
2019-03-29T01:04:00.411Z,97.49
2019-03-29T01:05:00.368Z,97.80
2019-03-29T01:06:00.355Z,98.00
2019-03-29T01:07:00.348Z,98.21
2019-03-29T01:08:07.694Z,97.91
2019-03-29T01:09:01.360Z,98.42
2019-03-29T01:10:00.482Z,97.60
2019-03-29T01:11:02.312Z,98.32
2019-03-29T01:12:00.290Z,98.32
2019-03-29T01:13:00.273Z,98.11
2019-03-29T01:14:00.273Z,98.42
2019-03-29T01:15:00.391Z,98.52
2019-03-29T01:16:00.259Z,98.52
2019-03-29T01:17:00.227Z,98.32
2019-03-29T01:18:00.226Z,98.11
2019-03-29T01:19:00.219Z,98.37
2019-03-29T01:20:00.369Z,98.42
2019-03-29T01:21:00.187Z,98.52
2019-03-29T01:22:00.189Z,98.21
2019-03-29T01:23:00.171Z,98.16
2019-03-29T01:24:00.154Z,98.27
2019-03-29T01:25:00.224Z,97.86
2019-03-29T01:26:00.953Z,98.37
2019-03-29T01:27:00.125Z,98.47
2019-03-29T01:28:00.112Z,97.65
2019-03-29T01:29:00.095Z,97.14
2019-03-29T01:30:00.273Z,97.34
2019-03-29T01:31:00.077Z,97.34
2019-03-29T01:32:00.062Z,97.24
2019-03-29T01:33:00.059Z,97.24
2019-03-29T01:34:00.045Z,97.24
2019-03-29T01:35:00.055Z,96.94
2019-03-29T01:36:00.018Z,96.83
2019-03-29T01:37:00.008Z,97.04
2019-03-29T01:37:59.999Z,97.24
2019-03-29T01:38:59.992Z,96.83
2019-03-29T01:40:00.002Z,97.14
2019-03-29T01:41:00.407Z,96.99
2019-03-29T01:41:59.951Z,96.83
2019-03-29T01:42:59.941Z,96.83
2019-03-29T01:43:59.938Z,96.58
2019-03-29T01:44:59.937Z,96.48
2019-03-29T01:45:59.909Z,96.48
2019-03-29T01:46:59.906Z,95.91
2019-03-29T01:47:59.890Z,95.87
2019-03-29T01:48:59.874Z,96.17
2019-03-29T01:49:59.879Z,96.17
2019-03-29T01:50:59.851Z,96.28
2019-03-29T01:51:59.838Z,96.69
2019-03-29T01:52:59.922Z,96.28
2019-03-29T01:53:59.823Z,96.48
2019-03-29T01:54:59.818Z,96.28
2019-03-29T01:55:59.811Z,96.48
2019-03-29T01:56:59.781Z,96.63
2019-03-29T01:57:59.769Z,96.58
2019-03-29T01:58:59.764Z,96.38
2019-03-29T01:59:59.770Z,95.56
2019-03-29T02:00:59.743Z,95.61
2019-03-29T02:01:59.723Z,95.56
2019-03-29T02:02:59.715Z,96.53
2019-03-29T02:03:59.709Z,96.32
2019-03-29T02:05:00.226Z,96.22
2019-03-29T02:05:59.688Z,96.53
2019-03-29T02:06:59.668Z,96.83
2019-03-29T02:07:59.657Z,97.14
2019-03-29T02:08:59.645Z,96.53
2019-03-29T02:09:59.749Z,97.04
2019-03-29T02:10:59.624Z,97.24
2019-03-29T02:11:59.614Z,97.45
2019-03-29T02:12:59.858Z,97.14
2019-03-29T02:13:59.590Z,97.24
2019-03-29T02:14:59.601Z,97.65
2019-03-29T02:15:59.576Z,97.45
2019-03-29T02:16:59.557Z,97.14
2019-03-29T02:17:59.554Z,97.45
2019-03-29T02:18:59.539Z,97.34
2019-03-29T02:19:59.544Z,97.55
2019-03-29T02:20:59.514Z,97.65
2019-03-29T02:21:59.502Z,97.14
2019-03-29T02:22:59.489Z,97.14
2019-03-29T02:23:59.477Z,97.55
2019-03-29T02:24:59.490Z,97.34
2019-03-29T02:25:59.454Z,97.80
2019-03-29T02:27:00.211Z,97.75
2019-03-29T02:27:59.428Z,98.58
2019-03-29T02:28:59.441Z,98.42
2019-03-29T02:29:59.446Z,98.07
2019-03-29T02:30:59.823Z,98.27
2019-03-29T02:31:59.390Z,98.27
2019-03-29T02:32:59.378Z,98.16
2019-03-29T02:33:59.377Z,97.96
2019-03-29T02:34:59.380Z,98.47
2019-03-29T02:35:59.349Z,97.45
2019-03-29T02:37:00.797Z,97.65
2019-03-29T02:37:59.327Z,97.40
2019-03-29T02:38:59.471Z,97.14
2019-03-29T02:39:59.311Z,97.34
2019-03-29T02:40:59.291Z,96.79
2019-03-29T02:41:59.273Z,97.20
2019-03-29T02:42:59.306Z,96.32
2019-03-29T02:43:59.249Z,96.22
2019-03-29T02:44:59.322Z,95.87
2019-03-29T02:45:59.229Z,95.87
2019-03-29T02:46:59.222Z,96.28
2019-03-29T02:47:59.203Z,95.87
2019-03-29T02:48:59.197Z,96.22
2019-03-29T02:49:59.209Z,96.22
2019-03-29T02:50:59.179Z,95.97
2019-03-29T02:51:59.173Z,96.38
2019-03-29T02:52:59.156Z,96.48
2019-03-29T02:53:59.140Z,96.58
2019-03-29T02:54:59.150Z,96.48
2019-03-29T02:55:59.125Z,96.28
2019-03-29T02:56:59.117Z,96.17
2019-03-29T02:57:59.096Z,96.28
2019-03-29T02:58:59.081Z,95.76
2019-03-29T02:59:59.108Z,95.66
2019-03-29T03:00:59.071Z,95.76
2019-03-29T03:01:59.059Z,96.28
2019-03-29T03:02:59.065Z,96.28
2019-03-29T03:03:59.029Z,96.69
2019-03-29T03:04:59.033Z,96.28
2019-03-29T03:05:59.009Z,95.56
2019-03-29T03:06:58.994Z,95.66
2019-03-29T03:07:58.989Z,96.07
2019-03-29T03:09:12.270Z,96.17
2019-03-29T03:09:59.971Z,96.17
2019-03-29T03:10:58.945Z,96.17
2019-03-29T03:11:58.939Z,96.28
2019-03-29T03:12:58.929Z,95.66
2019-03-29T03:13:58.923Z,95.66
2019-03-29T03:14:58.953Z,95.66
2019-03-29T03:15:58.885Z,95.76
2019-03-29T03:16:58.887Z,96.28
2019-03-29T03:17:58.869Z,96.17
2019-03-29T03:18:58.861Z,96.17
2019-03-29T03:19:58.869Z,95.66
2019-03-29T03:20:58.858Z,96.17
2019-03-29T03:21:58.823Z,96.17
2019-03-29T03:22:58.806Z,95.97
2019-03-29T03:23:58.812Z,95.76
2019-03-29T03:24:58.823Z,95.66
2019-03-29T03:25:58.787Z,95.97
2019-03-29T03:26:58.764Z,95.97
2019-03-29T03:27:58.754Z,96.38
2019-03-29T03:28:58.786Z,96.48
2019-03-29T03:29:58.744Z,95.87
2019-03-29T03:30:58.724Z,95.81
2019-03-29T03:31:58.717Z,96.07
2019-03-29T03:32:58.721Z,96.12
2019-03-29T03:33:58.707Z,96.01
2019-03-29T03:34:58.687Z,95.97
2019-03-29T03:35:58.684Z,95.87
2019-03-29T03:36:58.655Z,95.87
2019-03-29T03:37:58.648Z,95.97
2019-03-29T03:38:58.637Z,95.56
2019-03-29T03:39:58.623Z,95.97
2019-03-29T03:40:58.633Z,96.28
2019-03-29T03:41:58.603Z,95.50
2019-03-29T03:42:58.598Z,96.32
2019-03-29T03:43:58.575Z,96.22
2019-03-29T03:44:58.568Z,95.61
2019-03-29T03:45:58.573Z,96.53
2019-03-29T03:46:58.552Z,97.19
2019-03-29T03:47:58.533Z,97.24
2019-03-29T03:48:58.522Z,96.98
2019-03-29T03:50:00.978Z,97.49
2019-03-29T03:50:58.525Z,98.42
2019-03-29T03:51:58.493Z,98.21
2019-03-29T03:52:58.532Z,98.11
2019-03-29T03:53:58.465Z,98.52
2019-03-29T03:54:58.449Z,98.21
2019-03-29T03:55:58.473Z,97.96
2019-03-29T03:56:58.428Z,98.52
2019-03-29T03:57:58.437Z,98.52
2019-03-29T03:58:58.409Z,98.52
2019-03-29T03:59:58.400Z,98.52
2019-03-29T04:00:58.403Z,98.62
2019-03-29T04:01:58.372Z,98.52
2019-03-29T04:02:58.367Z,98.27
2019-03-29T04:03:58.368Z,98.21
2019-03-29T04:04:58.339Z,97.34
2019-03-29T04:05:58.345Z,97.24
2019-03-29T04:06:58.315Z,97.45
2019-03-29T04:07:58.355Z,97.45
2019-03-29T04:08:58.307Z,97.24
2019-03-29T04:09:58.284Z,96.94
2019-03-29T04:10:58.301Z,97.34
2019-03-29T04:11:58.324Z,97.04
2019-03-29T04:12:58.257Z,97.04
2019-03-29T04:13:58.239Z,96.73
2019-03-29T04:14:58.235Z,96.83
2019-03-29T04:15:58.256Z,97.04
2019-03-29T04:16:58.215Z,97.34
2019-03-29T04:17:58.198Z,96.63
2019-03-29T04:18:58.182Z,96.83
2019-03-29T04:19:58.183Z,96.83
2019-03-29T04:20:58.187Z,97.34
2019-03-29T04:21:58.156Z,97.04
2019-03-29T04:22:58.143Z,97.19
2019-03-29T04:23:58.129Z,97.55
2019-03-29T04:24:58.111Z,97.55
2019-03-29T04:25:58.138Z,98.21
2019-03-29T04:26:58.090Z,98.32
2019-03-29T04:27:58.078Z,98.52
2019-03-29T04:29:04.659Z,98.52
2019-03-29T04:29:59.058Z,98.47
2019-03-29T04:30:58.043Z,98.21
2019-03-29T04:31:58.065Z,98.16
2019-03-29T04:32:58.021Z,98.42
2019-03-29T04:33:58.008Z,97.55
2019-03-29T04:34:58.003Z,97.34
2019-03-29T04:35:58.002Z,97.39
2019-03-29T04:36:57.992Z,98.21
2019-03-29T04:37:57.962Z,98.37
2019-03-29T04:38:57.957Z,98.21
2019-03-29T04:40:06.779Z,98.16
2019-03-29T04:40:58.938Z,98.11
2019-03-29T04:41:57.944Z,98.16
2019-03-29T04:42:57.913Z,98.16
2019-03-29T04:43:57.894Z,98.47
2019-03-29T04:44:59.797Z,97.24
2019-03-29T04:45:57.873Z,97.86
2019-03-29T04:46:57.884Z,97.24
2019-03-29T04:47:57.857Z,97.75
2019-03-29T04:48:57.839Z,97.65
2019-03-29T04:49:57.828Z,97.14
2019-03-29T04:50:57.881Z,97.34
2019-03-29T04:51:57.822Z,97.45
2019-03-29T04:52:57.796Z,97.14
2019-03-29T04:53:57.787Z,97.20
2019-03-29T04:54:57.775Z,96.79
2019-03-29T04:55:57.767Z,96.48
2019-03-29T04:56:57.773Z,96.89
2019-03-29T04:57:57.736Z,96.48
2019-03-29T04:58:57.727Z,95.87
2019-03-29T04:59:57.717Z,95.87
2019-03-29T05:00:57.714Z,96.32
2019-03-29T05:01:57.710Z,96.53
2019-03-29T05:02:57.689Z,96.28
2019-03-29T05:03:57.679Z,96.32
2019-03-29T05:04:57.664Z,96.53
2019-03-29T05:05:57.648Z,97.14
2019-03-29T05:06:57.659Z,96.63
2019-03-29T05:07:57.628Z,97.34
2019-03-29T05:08:57.615Z,96.94
2019-03-29T05:09:57.603Z,97.14
2019-03-29T05:10:57.611Z,97.45
2019-03-29T05:11:57.604Z,97.14
2019-03-29T05:12:59.629Z,97.04
2019-03-29T05:13:57.562Z,97.55
2019-03-29T05:14:57.554Z,97.86
2019-03-29T05:15:57.537Z,97.04
2019-03-29T05:16:57.557Z,97.75
2019-03-29T05:17:57.520Z,97.55
2019-03-29T05:18:57.507Z,97.45
2019-03-29T05:19:57.496Z,97.34
2019-03-29T05:20:57.482Z,97.14
2019-03-29T05:21:57.517Z,97.34
2019-03-29T05:22:57.463Z,97.75
2019-03-29T05:23:57.454Z,97.55
2019-03-29T05:24:57.440Z,97.39
2019-03-29T05:25:57.421Z,98.27
2019-03-29T05:26:57.410Z,98.27
2019-03-29T05:27:57.431Z,97.96
2019-03-29T05:28:57.394Z,98.37
2019-03-29T05:29:57.461Z,97.96
2019-03-29T05:30:57.376Z,97.14
2019-03-29T05:31:57.365Z,97.45
2019-03-29T05:32:57.370Z,97.45
2019-03-29T05:33:57.339Z,97.45
2019-03-29T05:34:57.327Z,97.14
2019-03-29T05:35:57.310Z,96.89
2019-03-29T05:36:58.589Z,97.04
2019-03-29T05:37:57.315Z,97.14
2019-03-29T05:38:57.292Z,97.14
2019-03-29T05:39:57.266Z,97.14
2019-03-29T05:40:57.253Z,97.04
2019-03-29T05:41:57.247Z,97.04
2019-03-29T05:42:57.258Z,96.99
2019-03-29T05:43:57.225Z,97.24
2019-03-29T05:44:57.227Z,97.04
2019-03-29T05:45:57.198Z,96.58
2019-03-29T05:46:57.190Z,97.30
2019-03-29T05:47:57.208Z,96.32
2019-03-29T05:48:57.170Z,96.48
2019-03-29T05:49:57.158Z,96.48
2019-03-29T05:50:57.147Z,97.09
2019-03-29T05:51:57.134Z,96.79
2019-03-29T05:52:57.156Z,96.38
2019-03-29T05:53:57.111Z,95.97
2019-03-29T05:54:57.100Z,95.97
2019-03-29T05:55:57.092Z,95.66
2019-03-29T05:56:57.071Z,96.07
2019-03-29T05:57:57.084Z,96.07
2019-03-29T05:58:57.059Z,95.97
2019-03-29T05:59:57.038Z,96.38
2019-03-29T06:00:57.036Z,96.48
2019-03-29T06:01:57.019Z,96.28
2019-03-29T06:02:57.023Z,96.74
2019-03-29T06:03:57.003Z,96.74
2019-03-29T06:04:56.986Z,96.54
2019-03-29T06:05:56.981Z,95.82
2019-03-29T06:06:56.964Z,94.90
2019-03-29T06:07:56.989Z,95.10
2019-03-29T06:08:56.941Z,95.21
2019-03-29T06:09:56.937Z,95.51
2019-03-29T06:10:56.920Z,95.21
2019-03-29T06:11:56.918Z,95.10
2019-03-29T06:12:56.893Z,94.70
2019-03-29T06:13:56.907Z,94.59
2019-03-29T06:14:56.875Z,94.59
2019-03-29T06:15:56.866Z,95.00
2019-03-29T06:16:56.857Z,94.90
2019-03-29T06:17:56.863Z,95.00
2019-03-29T06:18:56.931Z,94.85
2019-03-29T06:19:56.816Z,94.65
2019-03-29T06:20:56.804Z,94.65
2019-03-29T06:21:56.791Z,94.45
2019-03-29T06:22:56.829Z,93.93
2019-03-29T06:23:56.941Z,93.84
2019-03-29T06:24:56.801Z,93.93
2019-03-29T06:25:56.749Z,93.73
2019-03-29T06:26:56.741Z,93.89
2019-03-29T06:27:56.757Z,93.59
2019-03-29T06:28:56.723Z,93.18
2019-03-29T06:29:56.775Z,93.59
2019-03-29T06:30:56.690Z,93.18
2019-03-29T06:31:56.677Z,92.87
2019-03-29T06:32:56.697Z,92.46
2019-03-29T06:33:56.676Z,93.24
2019-03-29T06:34:56.648Z,92.83
2019-03-29T06:35:56.635Z,92.62
2019-03-29T06:36:56.631Z,92.42
2019-03-29T06:37:57.311Z,91.91
2019-03-29T06:38:56.739Z,92.15
2019-03-29T06:39:56.602Z,92.87
2019-03-29T06:41:02.689Z,92.97
2019-03-29T06:41:57.565Z,92.56
2019-03-29T06:42:56.555Z,92.56
2019-03-29T06:43:56.563Z,92.46
2019-03-29T06:44:56.538Z,93.07
2019-03-29T06:45:56.521Z,92.66
2019-03-29T06:46:56.514Z,92.66
2019-03-29T06:47:56.497Z,93.18
2019-03-29T06:48:56.559Z,92.87
2019-03-29T06:49:56.477Z,93.18
2019-03-29T06:50:56.471Z,92.66
2019-03-29T06:51:56.450Z,92.97
2019-03-29T06:52:56.447Z,92.77
2019-03-29T06:53:56.453Z,92.56
2019-03-29T06:54:56.431Z,92.15
2019-03-29T06:55:59.242Z,91.85
2019-03-29T06:56:56.402Z,92.77
2019-03-29T06:57:56.388Z,92.87
2019-03-29T06:58:56.397Z,93.22
2019-03-29T06:59:56.365Z,93.07
2019-03-29T07:01:57.427Z,92.87
2019-03-29T07:02:56.349Z,93.38
2019-03-29T07:03:56.338Z,92.83
2019-03-29T07:04:56.311Z,92.83
2019-03-29T07:05:56.297Z,91.60
2019-03-29T07:06:56.285Z,91.86
2019-03-29T07:07:56.283Z,91.56
2019-03-29T07:08:56.283Z,91.66
2019-03-29T07:09:56.245Z,90.94
2019-03-29T07:10:56.243Z,90.53
2019-03-29T07:11:56.279Z,90.23
2019-03-29T07:12:56.652Z,90.19
2019-03-29T07:13:58.021Z,89.67
2019-03-29T07:14:56.236Z,90.49
2019-03-29T07:15:56.243Z,90.23
2019-03-29T07:16:56.178Z,90.33
2019-03-29T07:17:56.164Z,90.53
2019-03-29T07:18:56.158Z,90.39
2019-03-29T07:19:56.165Z,89.98
2019-03-29T07:20:56.124Z,90.29
2019-03-29T07:21:56.116Z,90.70
2019-03-29T07:22:56.109Z,89.58
2019-03-29T07:23:56.097Z,89.26
2019-03-29T07:24:56.109Z,89.00
2019-03-29T07:25:56.508Z,89.88
2019-03-29T07:26:56.056Z,90.02
2019-03-29T07:27:56.050Z,89.98
2019-03-29T07:28:56.034Z,89.78
2019-03-29T07:29:56.067Z,89.98
2019-03-29T07:30:56.014Z,89.58
2019-03-29T07:31:56.003Z,89.17
2019-03-29T07:32:55.993Z,89.17
2019-03-29T07:33:55.979Z,89.84
2019-03-29T07:34:56.062Z,89.94
2019-03-29T07:35:55.970Z,88.41
2019-03-29T07:36:55.944Z,87.96
2019-03-29T07:37:55.937Z,87.59
2019-03-29T07:38:55.925Z,88.17
2019-03-29T07:39:55.932Z,87.65
2019-03-29T07:40:55.913Z,86.94
2019-03-29T07:41:55.888Z,86.83
2019-03-29T07:42:55.879Z,87.45
2019-03-29T07:43:55.866Z,87.14
2019-03-29T07:44:55.877Z,87.30
2019-03-29T07:45:55.849Z,86.29
2019-03-29T07:46:55.841Z,86.02
2019-03-29T07:47:55.824Z,85.92
2019-03-29T07:48:55.812Z,85.92
2019-03-29T07:49:55.841Z,86.12
2019-03-29T07:50:55.787Z,85.92
2019-03-29T07:51:55.785Z,86.08
2019-03-29T07:52:55.765Z,86.29
2019-03-29T07:53:55.756Z,85.27
2019-03-29T07:54:55.746Z,86.12
2019-03-29T07:55:55.754Z,86.22
2019-03-29T07:56:55.724Z,86.73
2019-03-29T07:57:55.734Z,86.83
2019-03-29T07:58:55.701Z,87.65
2019-03-29T07:59:55.701Z,87.65
2019-03-29T08:00:55.693Z,87.45
2019-03-29T08:01:55.668Z,87.45
2019-03-29T08:02:55.787Z,87.45
2019-03-29T08:03:55.652Z,86.53
2019-03-29T08:04:55.626Z,86.33
2019-03-29T08:05:55.641Z,86.12
2019-03-29T08:06:55.614Z,85.88
2019-03-29T08:07:55.590Z,86.08
2019-03-29T08:08:55.584Z,84.96
2019-03-29T08:09:55.580Z,84.86
2019-03-29T08:10:55.579Z,84.86
2019-03-29T08:11:55.577Z,85.27
2019-03-29T08:12:55.533Z,84.96
2019-03-29T08:13:55.533Z,84.11
2019-03-29T08:14:55.527Z,84.92
2019-03-29T08:15:55.539Z,84.86
2019-03-29T08:16:55.495Z,84.34
2019-03-29T08:17:55.480Z,84.41
2019-03-29T08:18:55.470Z,83.59
2019-03-29T08:20:13.357Z,83.33
2019-03-29T08:20:56.467Z,84.75
2019-03-29T08:21:57.792Z,83.18
2019-03-29T08:22:55.423Z,83.39
2019-03-29T08:23:55.423Z,83.70
2019-03-29T08:24:55.404Z,84.25
2019-03-29T08:25:55.426Z,84.25
2019-03-29T08:26:55.380Z,84.41
2019-03-29T08:27:55.370Z,84.20
2019-03-29T08:28:55.357Z,83.18
2019-03-29T08:29:55.351Z,82.98
2019-03-29T08:30:55.369Z,83.04
2019-03-29T08:31:55.807Z,83.29
2019-03-29T08:32:55.311Z,82.84
2019-03-29T08:33:55.305Z,83.56
2019-03-29T08:34:55.312Z,82.84
2019-03-29T08:35:55.370Z,82.60
2019-03-29T08:36:55.283Z,82.03
2019-03-29T08:37:55.254Z,82.13
2019-03-29T08:38:55.246Z,81.88
2019-03-29T08:39:56.589Z,81.88
2019-03-29T08:40:55.247Z,81.27
2019-03-29T08:42:00.366Z,81.68
2019-03-29T08:42:56.203Z,81.99
2019-03-29T08:43:55.189Z,81.79
2019-03-29T08:44:55.186Z,81.07
2019-03-29T08:45:57.524Z,80.87
2019-03-29T08:46:55.154Z,80.87
2019-03-29T08:47:55.147Z,81.27
2019-03-29T08:48:55.209Z,80.87
2019-03-29T08:49:55.120Z,80.91
2019-03-29T08:50:55.125Z,81.27
2019-03-29T08:51:55.101Z,81.72
2019-03-29T08:52:55.096Z,82.19
2019-03-29T08:53:55.083Z,81.27
2019-03-29T08:54:55.068Z,81.48
2019-03-29T08:55:55.075Z,80.16
2019-03-29T08:56:55.085Z,81.07
2019-03-29T08:57:55.042Z,80.87
2019-03-29T08:58:55.025Z,81.17
2019-03-29T08:59:55.009Z,80.97
2019-03-29T09:00:55.031Z,80.66
2019-03-29T09:01:54.994Z,80.83
2019-03-29T09:02:54.972Z,80.36
2019-03-29T09:04:04.542Z,80.42
2019-03-29T09:04:55.961Z,80.52
2019-03-29T09:05:54.966Z,80.02
2019-03-29T09:06:54.954Z,79.50
2019-03-29T09:07:54.915Z,79.61
2019-03-29T09:08:54.908Z,80.11
2019-03-29T09:09:54.903Z,80.97
2019-03-29T09:10:54.892Z,81.58
2019-03-29T09:11:54.893Z,81.79
2019-03-29T09:12:54.869Z,81.88
2019-03-29T09:13:54.848Z,81.74
2019-03-29T09:14:54.832Z,81.38
2019-03-29T09:15:54.831Z,81.27
2019-03-29T09:16:54.837Z,81.68
2019-03-29T09:17:54.800Z,81.58
2019-03-29T09:18:54.795Z,81.74
2019-03-29T09:19:54.780Z,81.38
2019-03-29T09:20:54.773Z,80.97
2019-03-29T09:21:54.783Z,81.58
2019-03-29T09:22:54.789Z,81.48
2019-03-29T09:23:54.760Z,82.09
2019-03-29T09:24:54.968Z,81.88
2019-03-29T09:25:54.734Z,81.79
2019-03-29T09:26:54.737Z,81.48
2019-03-29T09:27:54.694Z,81.01
2019-03-29T09:28:54.739Z,80.80
2019-03-29T09:29:54.696Z,81.79
2019-03-29T09:30:56.624Z,81.11
2019-03-29T09:31:54.712Z,80.77
2019-03-29T09:32:54.660Z,80.09
2019-03-29T09:33:54.618Z,81.07
2019-03-29T09:34:54.616Z,80.97
2019-03-29T09:35:54.602Z,80.91
2019-03-29T09:36:54.624Z,81.11
2019-03-29T09:37:56.490Z,80.16
2019-03-29T09:38:54.564Z,80.29
2019-03-29T09:39:54.555Z,81.01
2019-03-29T09:40:58.856Z,80.80
2019-03-29T09:41:54.552Z,81.31
2019-03-29T09:43:06.718Z,81.41
2019-03-29T09:43:55.515Z,81.93
2019-03-29T09:44:54.496Z,80.64
2019-03-29T09:45:54.482Z,81.15
2019-03-29T09:46:54.491Z,81.86
2019-03-29T09:47:55.888Z,81.96
2019-03-29T09:48:54.562Z,81.86
2019-03-29T09:49:54.456Z,82.37
2019-03-29T09:50:54.435Z,82.27
2019-03-29T09:51:54.442Z,82.21
2019-03-29T09:52:54.410Z,82.00
2019-03-29T09:53:57.668Z,82.41
2019-03-29T09:54:54.400Z,82.00
2019-03-29T09:55:54.386Z,82.10
2019-03-29T09:56:54.395Z,82.00
2019-03-29T09:57:54.345Z,82.10
2019-03-29T09:58:54.394Z,82.51
2019-03-29T09:59:54.334Z,83.12
2019-03-29T10:00:54.319Z,83.06
2019-03-29T10:01:54.478Z,83.16
2019-03-29T10:02:54.499Z,82.86
2019-03-29T10:03:54.369Z,82.10
2019-03-29T10:04:54.328Z,81.12
2019-03-29T10:05:54.270Z,81.84
2019-03-29T10:06:54.255Z,81.70
2019-03-29T10:07:54.256Z,81.59
2019-03-29T10:08:54.230Z,80.88
2019-03-29T10:09:54.216Z,81.49
2019-03-29T10:10:54.237Z,81.80
2019-03-29T10:11:54.214Z,81.39
2019-03-29T10:12:54.221Z,80.98
2019-03-29T10:13:54.180Z,80.88
2019-03-29T10:14:54.173Z,80.23
2019-03-29T10:15:54.221Z,79.93
2019-03-29T10:16:54.151Z,78.80
2019-03-29T10:17:54.161Z,79.52
2019-03-29T10:18:54.122Z,78.87
2019-03-29T10:19:54.128Z,78.36
2019-03-29T10:20:54.091Z,77.64
2019-03-29T10:21:54.082Z,78.16
2019-03-29T10:22:54.090Z,77.95
2019-03-29T10:23:54.099Z,77.55
2019-03-29T10:24:54.052Z,77.03
2019-03-29T10:25:54.036Z,77.55
2019-03-29T10:26:54.021Z,77.75
2019-03-29T10:27:54.030Z,78.05
2019-03-29T10:28:54.028Z,77.40
2019-03-29T10:29:53.995Z,76.39
2019-03-29T10:30:53.973Z,76.39
2019-03-29T10:31:54.018Z,76.18
2019-03-29T10:32:55.464Z,76.62
2019-03-29T10:33:54.011Z,77.51
2019-03-29T10:34:53.926Z,77.40
2019-03-29T10:35:53.931Z,77.10
2019-03-29T10:36:53.937Z,76.76
2019-03-29T10:37:53.931Z,77.20
2019-03-29T10:38:53.892Z,76.56
2019-03-29T10:39:53.874Z,76.39
2019-03-29T10:40:53.858Z,77.20
2019-03-29T10:41:53.858Z,77.10
2019-03-29T10:42:57.988Z,76.49
2019-03-29T10:43:53.834Z,77.03
2019-03-29T10:44:53.830Z,76.90
2019-03-29T10:45:53.800Z,76.32
2019-03-29T10:46:53.801Z,76.93
2019-03-29T10:47:53.810Z,76.83
2019-03-29T10:48:53.773Z,77.61
2019-03-29T10:49:53.762Z,77.00
2019-03-29T10:50:53.746Z,77.20
2019-03-29T10:51:53.736Z,76.04
2019-03-29T10:52:53.757Z,76.35
2019-03-29T10:53:53.732Z,75.30
2019-03-29T10:54:53.698Z,73.74
2019-03-29T10:55:53.705Z,73.43
2019-03-29T10:56:53.682Z,73.43
2019-03-29T10:57:53.672Z,72.86
2019-03-29T10:58:53.680Z,72.28
2019-03-29T10:59:53.658Z,72.08
2019-03-29T11:00:53.639Z,72.08
2019-03-29T11:01:53.625Z,72.62
2019-03-29T11:02:53.612Z,72.69
2019-03-29T11:03:53.618Z,73.13
2019-03-29T11:04:53.588Z,72.89
2019-03-29T11:05:53.574Z,72.58
2019-03-29T11:06:53.571Z,71.77
2019-03-29T11:07:53.561Z,71.36
2019-03-29T11:08:53.562Z,71.47
2019-03-29T11:09:53.530Z,71.97
2019-03-29T11:10:53.526Z,70.55
2019-03-29T11:11:53.516Z,69.84
2019-03-29T11:12:53.493Z,68.34
2019-03-29T11:13:56.540Z,68.82
2019-03-29T11:14:53.478Z,70.14
2019-03-29T11:15:53.463Z,70.24
2019-03-29T11:16:53.460Z,70.62
2019-03-29T11:17:53.445Z,70.72
2019-03-29T11:18:53.446Z,70.21
2019-03-29T11:19:53.423Z,68.88
2019-03-29T11:20:53.412Z,68.58
2019-03-29T11:21:53.411Z,69.40
2019-03-29T11:22:53.385Z,68.41
2019-03-29T11:23:53.402Z,68.62
2019-03-29T11:24:53.365Z,68.48
2019-03-29T11:25:53.349Z,68.07
2019-03-29T11:26:53.351Z,67.94
2019-03-29T11:27:53.325Z,66.08
2019-03-29T11:28:53.331Z,65.77
2019-03-29T11:29:53.340Z,63.54
2019-03-29T11:30:53.292Z,63.74
2019-03-29T11:31:53.285Z,63.02
2019-03-29T11:32:53.277Z,62.35
2019-03-29T11:33:53.271Z,63.16
2019-03-29T11:34:53.256Z,62.55
2019-03-29T11:35:53.231Z,62.85
2019-03-29T11:36:53.235Z,63.16
2019-03-29T11:37:53.221Z,63.29
2019-03-29T11:38:53.247Z,63.70
2019-03-29T11:39:53.201Z,63.26
2019-03-29T11:40:53.248Z,63.77
2019-03-29T11:41:53.165Z,64.61
2019-03-29T11:42:53.154Z,64.41
2019-03-29T11:43:53.177Z,65.33
2019-03-29T11:44:53.131Z,65.33
2019-03-29T11:45:53.131Z,65.12
2019-03-29T11:46:53.111Z,65.19
2019-03-29T11:48:06.888Z,64.58
2019-03-29T11:48:54.121Z,64.38
2019-03-29T11:49:53.079Z,64.89
2019-03-29T11:50:53.063Z,65.02
2019-03-29T11:51:53.071Z,65.97
2019-03-29T11:52:53.042Z,66.17
2019-03-29T11:53:53.054Z,66.17
2019-03-29T11:54:53.025Z,65.97
2019-03-29T11:55:53.037Z,67.08
2019-03-29T11:56:53.005Z,67.19
2019-03-29T11:57:55.715Z,67.05
2019-03-29T11:58:52.994Z,66.04
2019-03-29T11:59:52.992Z,65.97
2019-03-29T12:00:52.962Z,67.08
2019-03-29T12:01:52.941Z,67.52
2019-03-29T12:02:52.935Z,67.12
2019-03-29T12:03:52.930Z,67.32
2019-03-29T12:04:52.932Z,67.52
2019-03-29T12:05:52.890Z,67.93
2019-03-29T12:06:52.889Z,67.49
2019-03-29T12:07:52.873Z,66.04
2019-03-29T12:08:56.896Z,65.94
2019-03-29T12:09:52.897Z,66.21
2019-03-29T12:10:52.839Z,66.21
2019-03-29T12:11:52.825Z,65.91
2019-03-29T12:12:52.816Z,65.80
2019-03-29T12:13:52.820Z,65.70
2019-03-29T12:14:52.832Z,65.70
2019-03-29T12:15:52.796Z,65.60
2019-03-29T12:16:52.777Z,66.00
2019-03-29T12:17:52.782Z,65.60
2019-03-29T12:18:52.753Z,65.60
2019-03-29T12:19:52.765Z,66.00
2019-03-29T12:20:54.388Z,65.70
2019-03-29T12:21:52.730Z,65.47
2019-03-29T12:22:52.713Z,65.06
2019-03-29T12:23:52.711Z,65.06
2019-03-29T12:24:52.701Z,65.16
2019-03-29T12:25:52.677Z,65.77
2019-03-29T12:26:55.003Z,65.50
2019-03-29T12:27:52.686Z,66.21
2019-03-29T12:28:52.642Z,65.60
2019-03-29T12:29:52.651Z,65.80
2019-03-29T12:30:52.629Z,66.14
2019-03-29T12:31:52.605Z,66.11
2019-03-29T12:32:52.607Z,66.00
2019-03-29T12:33:52.595Z,66.11
2019-03-29T12:34:52.601Z,65.91
2019-03-29T12:35:52.582Z,65.97
2019-03-29T12:36:52.547Z,66.08
2019-03-29T12:37:52.626Z,65.33
2019-03-29T12:38:52.528Z,64.73
2019-03-29T12:39:52.610Z,65.57
2019-03-29T12:40:52.502Z,65.57
2019-03-29T12:41:52.498Z,65.16
2019-03-29T12:42:52.473Z,65.47
2019-03-29T12:43:55.939Z,66.18
2019-03-29T12:44:52.465Z,65.50
2019-03-29T12:45:52.437Z,66.21
2019-03-29T12:46:52.433Z,66.00
2019-03-29T12:47:52.421Z,66.21
2019-03-29T12:48:52.411Z,65.91
2019-03-29T12:49:52.420Z,65.91
2019-03-29T12:50:52.394Z,65.97
2019-03-29T12:51:52.383Z,66.21
2019-03-29T12:52:52.367Z,66.00